sensor_id;sensor_type;location;lat;lon;timestamp;P1;durP1;ratioP1;P2;durP2;ratioP2
75682;SDS011;64295;44.772;39.872;2023-02-15T00:00:22;3.28;;;1.75;;
75682;SDS011;64295;44.772;39.872;2023-02-15T00:02:48;3.42;;;1.77;;
75682;SDS011;64295;44.772;39.872;2023-02-15T00:05:14;3.40;;;1.35;;
75682;SDS011;64295;44.772;39.872;2023-02-15T00:07:40;4.05;;;1.67;;
75682;SDS011;64295;44.772;39.872;2023-02-15T00:10:06;3.75;;;1.75;;
75682;SDS011;64295;44.772;39.872;2023-02-15T00:12:32;4.05;;;1.70;;
75682;SDS011;64295;44.772;39.872;2023-02-15T00:14:58;3.20;;;1.30;;
75682;SDS011;64295;44.772;39.872;2023-02-15T00:17:26;4.18;;;2.08;;
75682;SDS011;64295;44.772;39.872;2023-02-15T00:19:53;4.50;;;2.45;;
75682;SDS011;64295;44.772;39.872;2023-02-15T00:22:19;4.72;;;1.95;;
75682;SDS011;64295;44.772;39.872;2023-02-15T00:24:45;5.90;;;1.88;;
75682;SDS011;64295;44.772;39.872;2023-02-15T00:27:10;5.65;;;2.33;;
75682;SDS011;64295;44.772;39.872;2023-02-15T00:29:38;5.22;;;2.67;;
75682;SDS011;64295;44.772;39.872;2023-02-15T00:32:03;6.38;;;2.88;;
75682;SDS011;64295;44.772;39.872;2023-02-15T00:34:29;4.43;;;2.47;;
75682;SDS011;64295;44.772;39.872;2023-02-15T00:36:55;5.82;;;2.30;;
75682;SDS011;64295;44.772;39.872;2023-02-15T00:39:21;5.75;;;2.38;;
75682;SDS011;64295;44.772;39.872;2023-02-15T00:41:49;5.82;;;2.55;;
75682;SDS011;64295;44.772;39.872;2023-02-15T00:44:15;4.47;;;2.38;;
75682;SDS011;64295;44.772;39.872;2023-02-15T00:46:40;2.63;;;1.50;;
75682;SDS011;64295;44.772;39.872;2023-02-15T00:49:08;5.30;;;2.33;;
75682;SDS011;64295;44.772;39.872;2023-02-15T00:51:35;4.63;;;2.63;;
75682;SDS011;64295;44.772;39.872;2023-02-15T00:54:01;4.25;;;2.35;;
75682;SDS011;64295;44.772;39.872;2023-02-15T00:56:28;6.25;;;2.17;;
75682;SDS011;64295;44.772;39.872;2023-02-15T00:58:54;4.28;;;2.38;;
75682;SDS011;64295;44.772;39.872;2023-02-15T01:01:20;5.30;;;2.05;;
75682;SDS011;64295;44.772;39.872;2023-02-15T01:03:50;3.05;;;1.95;;
75682;SDS011;64295;44.772;39.872;2023-02-15T01:06:16;5.63;;;2.42;;
75682;SDS011;64295;44.772;39.872;2023-02-15T01:08:42;5.60;;;2.80;;
75682;SDS011;64295;44.772;39.872;2023-02-15T01:11:10;3.90;;;2.10;;
75682;SDS011;64295;44.772;39.872;2023-02-15T01:13:38;6.75;;;2.40;;
75682;SDS011;64295;44.772;39.872;2023-02-15T01:16:05;5.65;;;2.30;;
75682;SDS011;64295;44.772;39.872;2023-02-15T01:18:31;6.68;;;3.42;;
75682;SDS011;64295;44.772;39.872;2023-02-15T01:20:58;7.18;;;3.92;;
75682;SDS011;64295;44.772;39.872;2023-02-15T01:23:24;7.10;;;3.42;;
75682;SDS011;64295;44.772;39.872;2023-02-15T01:25:50;7.15;;;2.92;;
75682;SDS011;64295;44.772;39.872;2023-02-15T01:28:15;9.25;;;4.10;;
75682;SDS011;64295;44.772;39.872;2023-02-15T01:30:41;9.63;;;3.83;;
75682;SDS011;64295;44.772;39.872;2023-02-15T01:33:07;8.20;;;2.95;;
75682;SDS011;64295;44.772;39.872;2023-02-15T01:35:43;8.13;;;3.83;;
75682;SDS011;64295;44.772;39.872;2023-02-15T01:38:10;9.70;;;2.90;;
75682;SDS011;64295;44.772;39.872;2023-02-15T01:40:37;8.25;;;4.25;;
75682;SDS011;64295;44.772;39.872;2023-02-15T01:43:07;10.55;;;4.00;;
75682;SDS011;64295;44.772;39.872;2023-02-15T01:45:37;8.55;;;4.00;;
75682;SDS011;64295;44.772;39.872;2023-02-15T01:48:05;8.60;;;4.07;;
75682;SDS011;64295;44.772;39.872;2023-02-15T01:50:57;6.82;;;3.67;;
75682;SDS011;64295;44.772;39.872;2023-02-15T01:53:33;6.20;;;2.85;;
75682;SDS011;64295;44.772;39.872;2023-02-15T01:56:07;9.65;;;3.58;;
75682;SDS011;64295;44.772;39.872;2023-02-15T01:58:34;9.13;;;4.07;;
75682;SDS011;64295;44.772;39.872;2023-02-15T02:01:01;9.75;;;3.78;;
75682;SDS011;64295;44.772;39.872;2023-02-15T02:03:38;10.10;;;4.05;;
75682;SDS011;64295;44.772;39.872;2023-02-15T02:06:29;9.82;;;5.15;;
75682;SDS011;64295;44.772;39.872;2023-02-15T02:08:56;10.75;;;4.07;;
75682;SDS011;64295;44.772;39.872;2023-02-15T02:11:23;7.15;;;3.75;;
75682;SDS011;64295;44.772;39.872;2023-02-15T02:13:50;9.18;;;4.30;;
75682;SDS011;64295;44.772;39.872;2023-02-15T02:21:34;10.52;;;5.13;;
75682;SDS011;64295;44.772;39.872;2023-02-15T02:26:47;11.63;;;4.75;;
75682;SDS011;64295;44.772;39.872;2023-02-15T02:46:33;11.88;;;4.53;;
75682;SDS011;64295;44.772;39.872;2023-02-15T02:49:04;12.43;;;4.43;;
75682;SDS011;64295;44.772;39.872;2023-02-15T02:51:30;10.02;;;4.25;;
75682;SDS011;64295;44.772;39.872;2023-02-15T02:53:58;11.40;;;4.53;;
75682;SDS011;64295;44.772;39.872;2023-02-15T02:56:45;13.75;;;5.30;;
75682;SDS011;64295;44.772;39.872;2023-02-15T02:59:19;12.63;;;5.63;;
75682;SDS011;64295;44.772;39.872;2023-02-15T03:04:24;10.38;;;4.38;;
75682;SDS011;64295;44.772;39.872;2023-02-15T03:06:55;10.52;;;4.85;;
75682;SDS011;64295;44.772;39.872;2023-02-15T03:09:33;13.25;;;5.07;;
75682;SDS011;64295;44.772;39.872;2023-02-15T03:12:26;10.55;;;4.82;;
75682;SDS011;64295;44.772;39.872;2023-02-15T03:15:02;13.27;;;5.50;;
75682;SDS011;64295;44.772;39.872;2023-02-15T03:17:32;12.25;;;4.22;;
75682;SDS011;64295;44.772;39.872;2023-02-15T03:20:06;12.82;;;5.55;;
75682;SDS011;64295;44.772;39.872;2023-02-15T03:22:58;12.73;;;5.22;;
75682;SDS011;64295;44.772;39.872;2023-02-15T03:25:26;18.80;;;6.68;;
75682;SDS011;64295;44.772;39.872;2023-02-15T03:28:05;15.38;;;5.70;;
75682;SDS011;64295;44.772;39.872;2023-02-15T03:30:34;15.18;;;5.38;;
75682;SDS011;64295;44.772;39.872;2023-02-15T03:33:03;12.93;;;5.55;;
75682;SDS011;64295;44.772;39.872;2023-02-15T03:35:39;15.18;;;5.03;;
75682;SDS011;64295;44.772;39.872;2023-02-15T03:38:14;11.00;;;5.00;;
75682;SDS011;64295;44.772;39.872;2023-02-15T03:40:47;17.63;;;7.88;;
75682;SDS011;64295;44.772;39.872;2023-02-15T03:48:47;13.98;;;5.53;;
75682;SDS011;64295;44.772;39.872;2023-02-15T03:51:20;14.35;;;5.88;;
75682;SDS011;64295;44.772;39.872;2023-02-15T03:54:00;15.27;;;5.45;;
75682;SDS011;64295;44.772;39.872;2023-02-15T03:56:30;15.68;;;4.95;;
75682;SDS011;64295;44.772;39.872;2023-02-15T03:58:58;14.75;;;6.18;;
75682;SDS011;64295;44.772;39.872;2023-02-15T04:04:46;17.23;;;5.97;;
75682;SDS011;64295;44.772;39.872;2023-02-15T04:07:12;16.08;;;6.82;;
75682;SDS011;64295;44.772;39.872;2023-02-15T04:09:38;16.25;;;6.10;;
75682;SDS011;64295;44.772;39.872;2023-02-15T04:12:23;19.55;;;6.82;;
75682;SDS011;64295;44.772;39.872;2023-02-15T04:14:48;20.05;;;7.65;;
75682;SDS011;64295;44.772;39.872;2023-02-15T04:17:32;19.23;;;6.68;;
75682;SDS011;64295;44.772;39.872;2023-02-15T04:19:58;21.02;;;6.63;;
75682;SDS011;64295;44.772;39.872;2023-02-15T04:22:42;17.45;;;6.18;;
75682;SDS011;64295;44.772;39.872;2023-02-15T04:25:27;22.30;;;7.50;;
75682;SDS011;64295;44.772;39.872;2023-02-15T04:27:53;19.67;;;7.78;;
75682;SDS011;64295;44.772;39.872;2023-02-15T04:30:21;21.98;;;7.43;;
75682;SDS011;64295;44.772;39.872;2023-02-15T04:32:48;17.00;;;6.97;;
75682;SDS011;64295;44.772;39.872;2023-02-15T04:35:14;14.60;;;6.15;;
75682;SDS011;64295;44.772;39.872;2023-02-15T04:37:41;22.48;;;9.30;;
75682;SDS011;64295;44.772;39.872;2023-02-15T04:40:08;19.17;;;7.93;;
75682;SDS011;64295;44.772;39.872;2023-02-15T04:42:36;17.70;;;6.68;;
75682;SDS011;64295;44.772;39.872;2023-02-15T04:45:02;16.70;;;6.25;;
75682;SDS011;64295;44.772;39.872;2023-02-15T04:47:28;16.58;;;5.70;;
75682;SDS011;64295;44.772;39.872;2023-02-15T04:49:54;18.27;;;6.47;;
75682;SDS011;64295;44.772;39.872;2023-02-15T04:52:20;15.27;;;5.75;;
75682;SDS011;64295;44.772;39.872;2023-02-15T04:54:46;20.00;;;7.13;;
75682;SDS011;64295;44.772;39.872;2023-02-15T04:57:12;18.88;;;6.55;;
75682;SDS011;64295;44.772;39.872;2023-02-15T04:59:39;17.10;;;6.95;;
75682;SDS011;64295;44.772;39.872;2023-02-15T05:02:04;16.10;;;6.35;;
75682;SDS011;64295;44.772;39.872;2023-02-15T05:04:31;14.90;;;5.28;;
75682;SDS011;64295;44.772;39.872;2023-02-15T05:06:56;15.18;;;5.18;;
75682;SDS011;64295;44.772;39.872;2023-02-15T05:09:22;12.70;;;5.43;;
75682;SDS011;64295;44.772;39.872;2023-02-15T05:11:48;13.57;;;5.95;;
75682;SDS011;64295;44.772;39.872;2023-02-15T05:14:14;12.93;;;5.43;;
75682;SDS011;64295;44.772;39.872;2023-02-15T05:16:40;17.15;;;6.40;;
75682;SDS011;64295;44.772;39.872;2023-02-15T05:19:06;15.32;;;5.60;;
75682;SDS011;64295;44.772;39.872;2023-02-15T05:21:32;14.13;;;6.10;;
75682;SDS011;64295;44.772;39.872;2023-02-15T05:23:58;16.02;;;5.43;;
75682;SDS011;64295;44.772;39.872;2023-02-15T05:26:24;19.20;;;6.93;;
75682;SDS011;64295;44.772;39.872;2023-02-15T05:29:10;13.43;;;5.40;;
75682;SDS011;64295;44.772;39.872;2023-02-15T05:31:36;23.73;;;9.63;;
75682;SDS011;64295;44.772;39.872;2023-02-15T05:34:02;27.60;;;9.82;;
75682;SDS011;64295;44.772;39.872;2023-02-15T05:36:28;38.80;;;15.40;;
75682;SDS011;64295;44.772;39.872;2023-02-15T05:38:54;48.03;;;16.35;;
75682;SDS011;64295;44.772;39.872;2023-02-15T05:41:21;25.35;;;9.48;;
75682;SDS011;64295;44.772;39.872;2023-02-15T05:43:47;24.15;;;9.23;;
75682;SDS011;64295;44.772;39.872;2023-02-15T05:46:12;24.63;;;10.23;;
75682;SDS011;64295;44.772;39.872;2023-02-15T05:48:38;28.42;;;11.05;;
75682;SDS011;64295;44.772;39.872;2023-02-15T05:51:09;15.90;;;6.43;;
75682;SDS011;64295;44.772;39.872;2023-02-15T05:53:39;24.98;;;8.90;;
75682;SDS011;64295;44.772;39.872;2023-02-15T05:56:06;23.77;;;9.43;;
75682;SDS011;64295;44.772;39.872;2023-02-15T05:58:37;21.80;;;8.40;;
75682;SDS011;64295;44.772;39.872;2023-02-15T06:01:15;16.55;;;6.75;;
75682;SDS011;64295;44.772;39.872;2023-02-15T06:03:43;11.50;;;4.85;;
75682;SDS011;64295;44.772;39.872;2023-02-15T06:06:10;11.52;;;6.25;;
75682;SDS011;64295;44.772;39.872;2023-02-15T06:08:36;13.05;;;5.18;;
75682;SDS011;64295;44.772;39.872;2023-02-15T06:11:04;17.02;;;6.18;;
75682;SDS011;64295;44.772;39.872;2023-02-15T06:13:30;17.13;;;7.20;;
75682;SDS011;64295;44.772;39.872;2023-02-15T06:15:56;13.88;;;6.55;;
75682;SDS011;64295;44.772;39.872;2023-02-15T06:18:23;13.23;;;6.22;;
75682;SDS011;64295;44.772;39.872;2023-02-15T06:20:49;21.83;;;9.30;;
75682;SDS011;64295;44.772;39.872;2023-02-15T06:23:15;13.50;;;5.25;;
75682;SDS011;64295;44.772;39.872;2023-02-15T06:25:41;17.13;;;6.80;;
75682;SDS011;64295;44.772;39.872;2023-02-15T06:28:07;15.43;;;5.60;;
75682;SDS011;64295;44.772;39.872;2023-02-15T06:30:33;13.48;;;5.72;;
75682;SDS011;64295;44.772;39.872;2023-02-15T06:32:59;15.32;;;6.50;;
75682;SDS011;64295;44.772;39.872;2023-02-15T06:35:25;11.70;;;5.45;;
75682;SDS011;64295;44.772;39.872;2023-02-15T06:37:51;8.57;;;4.43;;
75682;SDS011;64295;44.772;39.872;2023-02-15T06:40:17;13.88;;;6.00;;
75682;SDS011;64295;44.772;39.872;2023-02-15T06:42:43;11.82;;;4.57;;
75682;SDS011;64295;44.772;39.872;2023-02-15T06:45:10;7.18;;;3.92;;
75682;SDS011;64295;44.772;39.872;2023-02-15T06:47:36;12.10;;;4.10;;
75682;SDS011;64295;44.772;39.872;2023-02-15T06:50:05;7.75;;;3.53;;
75682;SDS011;64295;44.772;39.872;2023-02-15T06:54:58;7.60;;;3.40;;
75682;SDS011;64295;44.772;39.872;2023-02-15T06:57:24;9.02;;;4.03;;
75682;SDS011;64295;44.772;39.872;2023-02-15T06:59:49;12.00;;;5.70;;
75682;SDS011;64295;44.772;39.872;2023-02-15T07:02:15;17.05;;;7.97;;
75682;SDS011;64295;44.772;39.872;2023-02-15T07:04:41;13.40;;;4.97;;
75682;SDS011;64295;44.772;39.872;2023-02-15T07:07:08;15.18;;;5.97;;
75682;SDS011;64295;44.772;39.872;2023-02-15T07:09:35;16.15;;;6.15;;
75682;SDS011;64295;44.772;39.872;2023-02-15T07:12:01;15.15;;;5.75;;
75682;SDS011;64295;44.772;39.872;2023-02-15T07:14:46;16.60;;;6.32;;
75682;SDS011;64295;44.772;39.872;2023-02-15T07:17:12;21.67;;;7.28;;
75682;SDS011;64295;44.772;39.872;2023-02-15T07:19:38;13.02;;;6.82;;
75682;SDS011;64295;44.772;39.872;2023-02-15T07:22:03;19.35;;;7.32;;
75682;SDS011;64295;44.772;39.872;2023-02-15T07:24:30;17.55;;;7.72;;
75682;SDS011;64295;44.772;39.872;2023-02-15T07:26:56;20.65;;;10.18;;
75682;SDS011;64295;44.772;39.872;2023-02-15T07:29:23;17.40;;;7.50;;
75682;SDS011;64295;44.772;39.872;2023-02-15T07:31:49;14.00;;;6.82;;
75682;SDS011;64295;44.772;39.872;2023-02-15T07:34:15;13.63;;;6.43;;
75682;SDS011;64295;44.772;39.872;2023-02-15T07:36:41;18.10;;;6.60;;
75682;SDS011;64295;44.772;39.872;2023-02-15T07:39:09;14.63;;;6.90;;
75682;SDS011;64295;44.772;39.872;2023-02-15T07:41:35;16.42;;;6.93;;
75682;SDS011;64295;44.772;39.872;2023-02-15T07:44:13;13.95;;;5.43;;
75682;SDS011;64295;44.772;39.872;2023-02-15T07:46:39;16.65;;;6.30;;
75682;SDS011;64295;44.772;39.872;2023-02-15T07:49:05;14.98;;;7.30;;
75682;SDS011;64295;44.772;39.872;2023-02-15T07:51:31;18.88;;;8.07;;
75682;SDS011;64295;44.772;39.872;2023-02-15T07:53:57;16.83;;;7.10;;
75682;SDS011;64295;44.772;39.872;2023-02-15T07:56:23;24.95;;;10.30;;
75682;SDS011;64295;44.772;39.872;2023-02-15T07:58:49;16.05;;;6.97;;
75682;SDS011;64295;44.772;39.872;2023-02-15T08:01:25;13.00;;;5.15;;
75682;SDS011;64295;44.772;39.872;2023-02-15T08:03:52;13.73;;;5.35;;
75682;SDS011;64295;44.772;39.872;2023-02-15T08:06:19;14.95;;;7.10;;
75682;SDS011;64295;44.772;39.872;2023-02-15T08:08:46;19.30;;;7.32;;
75682;SDS011;64295;44.772;39.872;2023-02-15T08:14:41;16.70;;;7.15;;
75682;SDS011;64295;44.772;39.872;2023-02-15T08:16:52;18.55;;;7.95;;
75682;SDS011;64295;44.772;39.872;2023-02-15T08:19:23;19.83;;;6.80;;
75682;SDS011;64295;44.772;39.872;2023-02-15T08:21:55;16.85;;;6.75;;
75682;SDS011;64295;44.772;39.872;2023-02-15T08:24:26;17.05;;;6.93;;
75682;SDS011;64295;44.772;39.872;2023-02-15T08:26:56;16.77;;;7.15;;
75682;SDS011;64295;44.772;39.872;2023-02-15T08:29:24;13.32;;;5.53;;
75682;SDS011;64295;44.772;39.872;2023-02-15T08:31:56;21.10;;;8.05;;
75682;SDS011;64295;44.772;39.872;2023-02-15T08:34:30;17.00;;;6.88;;
75682;SDS011;64295;44.772;39.872;2023-02-15T08:36:58;16.45;;;7.00;;
75682;SDS011;64295;44.772;39.872;2023-02-15T08:39:24;20.15;;;7.15;;
75682;SDS011;64295;44.772;39.872;2023-02-15T08:41:50;16.27;;;6.50;;
75682;SDS011;64295;44.772;39.872;2023-02-15T08:44:17;12.25;;;5.15;;
75682;SDS011;64295;44.772;39.872;2023-02-15T08:46:44;10.20;;;3.70;;
75682;SDS011;64295;44.772;39.872;2023-02-15T08:49:18;9.10;;;4.30;;
75682;SDS011;64295;44.772;39.872;2023-02-15T08:51:45;12.02;;;4.53;;
75682;SDS011;64295;44.772;39.872;2023-02-15T08:54:13;14.00;;;5.63;;
75682;SDS011;64295;44.772;39.872;2023-02-15T08:56:41;17.48;;;6.85;;
75682;SDS011;64295;44.772;39.872;2023-02-15T08:59:11;14.30;;;6.22;;
75682;SDS011;64295;44.772;39.872;2023-02-15T09:01:40;13.55;;;5.78;;
75682;SDS011;64295;44.772;39.872;2023-02-15T09:04:06;13.07;;;4.85;;
75682;SDS011;64295;44.772;39.872;2023-02-15T09:06:36;7.68;;;3.45;;
75682;SDS011;64295;44.772;39.872;2023-02-15T09:09:03;8.43;;;3.65;;
75682;SDS011;64295;44.772;39.872;2023-02-15T09:11:29;8.10;;;4.30;;
75682;SDS011;64295;44.772;39.872;2023-02-15T09:14:02;10.90;;;4.38;;
75682;SDS011;64295;44.772;39.872;2023-02-15T09:16:33;8.45;;;4.50;;
75682;SDS011;64295;44.772;39.872;2023-02-15T09:19:01;7.95;;;4.10;;
75682;SDS011;64295;44.772;39.872;2023-02-15T09:21:29;12.30;;;4.65;;
75682;SDS011;64295;44.772;39.872;2023-02-15T09:23:57;11.63;;;4.60;;
75682;SDS011;64295;44.772;39.872;2023-02-15T09:26:25;9.75;;;4.72;;
75682;SDS011;64295;44.772;39.872;2023-02-15T09:28:54;10.73;;;4.65;;
75682;SDS011;64295;44.772;39.872;2023-02-15T09:31:22;8.75;;;4.05;;
75682;SDS011;64295;44.772;39.872;2023-02-15T09:33:50;6.93;;;3.30;;
75682;SDS011;64295;44.772;39.872;2023-02-15T09:36:17;10.48;;;4.88;;
75682;SDS011;64295;44.772;39.872;2023-02-15T09:38:45;10.88;;;4.40;;
75682;SDS011;64295;44.772;39.872;2023-02-15T09:44:10;7.80;;;3.58;;
75682;SDS011;64295;44.772;39.872;2023-02-15T09:47:02;13.80;;;4.03;;
75682;SDS011;64295;44.772;39.872;2023-02-15T09:59:06;11.68;;;5.50;;
75682;SDS011;64295;44.772;39.872;2023-02-15T10:10:04;13.10;;;6.15;;
75682;SDS011;64295;44.772;39.872;2023-02-15T10:13:14;11.02;;;5.15;;
75682;SDS011;64295;44.772;39.872;2023-02-15T10:27:12;8.23;;;3.15;;
75682;SDS011;64295;44.772;39.872;2023-02-15T10:32:44;6.28;;;2.85;;
75682;SDS011;64295;44.772;39.872;2023-02-15T10:35:28;7.47;;;3.25;;
75682;SDS011;64295;44.772;39.872;2023-02-15T10:54:31;8.05;;;3.88;;
75682;SDS011;64295;44.772;39.872;2023-02-15T10:57:34;12.32;;;5.88;;
75682;SDS011;64295;44.772;39.872;2023-02-15T11:02:48;11.18;;;5.13;;
75682;SDS011;64295;44.772;39.872;2023-02-15T11:08:03;8.80;;;4.28;;
75682;SDS011;64295;44.772;39.872;2023-02-15T11:10:42;12.68;;;4.32;;
75682;SDS011;64295;44.772;39.872;2023-02-15T11:13:15;8.65;;;4.50;;
75682;SDS011;64295;44.772;39.872;2023-02-15T11:18:45;14.88;;;6.22;;
75682;SDS011;64295;44.772;39.872;2023-02-15T11:21:20;13.73;;;5.93;;
75682;SDS011;64295;44.772;39.872;2023-02-15T11:23:52;14.60;;;6.75;;
75682;SDS011;64295;44.772;39.872;2023-02-15T11:26:31;13.60;;;6.35;;
75682;SDS011;64295;44.772;39.872;2023-02-15T11:28:59;13.80;;;5.65;;
75682;SDS011;64295;44.772;39.872;2023-02-15T11:31:41;10.25;;;5.25;;
75682;SDS011;64295;44.772;39.872;2023-02-15T11:34:13;8.65;;;4.22;;
75682;SDS011;64295;44.772;39.872;2023-02-15T11:36:47;14.45;;;5.57;;
75682;SDS011;64295;44.772;39.872;2023-02-15T11:39:17;11.48;;;4.47;;
75682;SDS011;64295;44.772;39.872;2023-02-15T11:41:44;8.38;;;4.75;;
75682;SDS011;64295;44.772;39.872;2023-02-15T11:44:21;12.77;;;5.25;;
75682;SDS011;64295;44.772;39.872;2023-02-15T11:46:48;9.90;;;3.95;;
75682;SDS011;64295;44.772;39.872;2023-02-15T11:49:36;10.10;;;4.07;;
75682;SDS011;64295;44.772;39.872;2023-02-15T11:52:05;9.40;;;4.18;;
75682;SDS011;64295;44.772;39.872;2023-02-15T11:57:06;11.43;;;5.53;;
75682;SDS011;64295;44.772;39.872;2023-02-15T11:59:59;9.15;;;4.70;;
75682;SDS011;64295;44.772;39.872;2023-02-15T12:02:33;11.38;;;5.00;;
75682;SDS011;64295;44.772;39.872;2023-02-15T12:07:36;11.02;;;4.70;;
75682;SDS011;64295;44.772;39.872;2023-02-15T12:15:37;7.53;;;3.78;;
75682;SDS011;64295;44.772;39.872;2023-02-15T12:18:05;12.60;;;4.95;;
75682;SDS011;64295;44.772;39.872;2023-02-15T12:21:14;7.93;;;3.92;;
75682;SDS011;64295;44.772;39.872;2023-02-15T12:23:53;11.25;;;5.18;;
75682;SDS011;64295;44.772;39.872;2023-02-15T12:26:29;8.48;;;4.05;;
75682;SDS011;64295;44.772;39.872;2023-02-15T12:29:00;9.70;;;4.07;;
75682;SDS011;64295;44.772;39.872;2023-02-15T12:31:43;10.02;;;4.43;;
75682;SDS011;64295;44.772;39.872;2023-02-15T12:34:12;10.75;;;4.35;;
75682;SDS011;64295;44.772;39.872;2023-02-15T12:36:55;8.20;;;4.03;;
75682;SDS011;64295;44.772;39.872;2023-02-15T12:39:30;8.30;;;4.32;;
75682;SDS011;64295;44.772;39.872;2023-02-15T12:42:04;7.32;;;3.83;;
75682;SDS011;64295;44.772;39.872;2023-02-15T12:44:52;11.93;;;4.15;;
75682;SDS011;64295;44.772;39.872;2023-02-15T12:47:20;8.55;;;4.38;;
75682;SDS011;64295;44.772;39.872;2023-02-15T12:53:04;10.68;;;4.35;;
75682;SDS011;64295;44.772;39.872;2023-02-15T12:55:54;10.13;;;3.92;;
75682;SDS011;64295;44.772;39.872;2023-02-15T12:58:23;11.90;;;4.88;;
75682;SDS011;64295;44.772;39.872;2023-02-15T13:03:56;10.07;;;4.13;;
75682;SDS011;64295;44.772;39.872;2023-02-15T13:06:25;8.20;;;3.55;;
75682;SDS011;64295;44.772;39.872;2023-02-15T13:11:45;7.57;;;3.63;;
75682;SDS011;64295;44.772;39.872;2023-02-15T13:16:43;5.88;;;3.42;;
75682;SDS011;64295;44.772;39.872;2023-02-15T13:21:50;8.10;;;3.60;;
75682;SDS011;64295;44.772;39.872;2023-02-15T13:26:48;7.68;;;4.35;;
75682;SDS011;64295;44.772;39.872;2023-02-15T13:29:37;8.40;;;4.28;;
75682;SDS011;64295;44.772;39.872;2023-02-15T13:32:23;7.18;;;3.53;;
75682;SDS011;64295;44.772;39.872;2023-02-15T13:34:59;9.65;;;3.78;;
75682;SDS011;64295;44.772;39.872;2023-02-15T13:40:02;9.07;;;4.70;;
75682;SDS011;64295;44.772;39.872;2023-02-15T13:42:40;7.97;;;3.80;;
75682;SDS011;64295;44.772;39.872;2023-02-15T13:51:04;11.40;;;4.50;;
75682;SDS011;64295;44.772;39.872;2023-02-15T14:18:52;10.52;;;5.70;;
75682;SDS011;64295;44.772;39.872;2023-02-15T14:21:30;9.07;;;3.78;;
75682;SDS011;64295;44.772;39.872;2023-02-15T14:32:25;11.13;;;4.38;;
75682;SDS011;64295;44.772;39.872;2023-02-15T14:34:58;6.07;;;3.90;;
75682;SDS011;64295;44.772;39.872;2023-02-15T14:37:34;7.57;;;4.00;;
75682;SDS011;64295;44.772;39.872;2023-02-15T14:40:16;6.55;;;3.75;;
75682;SDS011;64295;44.772;39.872;2023-02-15T14:48:34;4.75;;;1.50;;
75682;SDS011;64295;44.772;39.872;2023-02-15T14:51:03;3.60;;;2.20;;
75682;SDS011;64295;44.772;39.872;2023-02-15T14:56:05;4.93;;;1.98;;
75682;SDS011;64295;44.772;39.872;2023-02-15T14:58:32;5.57;;;2.08;;
75682;SDS011;64295;44.772;39.872;2023-02-15T15:01:17;3.88;;;1.80;;
75682;SDS011;64295;44.772;39.872;2023-02-15T15:04:08;3.17;;;1.65;;
75682;SDS011;64295;44.772;39.872;2023-02-15T15:06:38;4.82;;;2.65;;
75682;SDS011;64295;44.772;39.872;2023-02-15T15:09:20;8.38;;;4.32;;
75682;SDS011;64295;44.772;39.872;2023-02-15T15:11:53;8.07;;;3.05;;
75682;SDS011;64295;44.772;39.872;2023-02-15T15:16:58;7.60;;;3.67;;
75682;SDS011;64295;44.772;39.872;2023-02-15T15:22:19;7.80;;;3.05;;
75682;SDS011;64295;44.772;39.872;2023-02-15T15:24:57;9.65;;;4.25;;
75682;SDS011;64295;44.772;39.872;2023-02-15T15:41:16;8.63;;;4.60;;
75682;SDS011;64295;44.772;39.872;2023-02-15T15:47:06;6.15;;;3.90;;
75682;SDS011;64295;44.772;39.872;2023-02-15T15:49:56;10.80;;;4.82;;
75682;SDS011;64295;44.772;39.872;2023-02-15T15:52:24;9.35;;;5.30;;
75682;SDS011;64295;44.772;39.872;2023-02-15T15:54:53;13.65;;;5.85;;
75682;SDS011;64295;44.772;39.872;2023-02-15T15:57:29;10.80;;;5.60;;
75682;SDS011;64295;44.772;39.872;2023-02-15T16:00:04;7.80;;;4.32;;
75682;SDS011;64295;44.772;39.872;2023-02-15T16:02:53;10.50;;;5.82;;
75682;SDS011;64295;44.772;39.872;2023-02-15T16:05:20;10.98;;;5.00;;
75682;SDS011;64295;44.772;39.872;2023-02-15T16:07:46;7.82;;;4.53;;
75682;SDS011;64295;44.772;39.872;2023-02-15T16:10:23;10.98;;;4.88;;
75682;SDS011;64295;44.772;39.872;2023-02-15T16:12:51;11.18;;;5.53;;
75682;SDS011;64295;44.772;39.872;2023-02-15T16:15:22;12.68;;;5.78;;
75682;SDS011;64295;44.772;39.872;2023-02-15T16:17:57;8.77;;;4.63;;
75682;SDS011;64295;44.772;39.872;2023-02-15T16:20:25;10.32;;;5.95;;
75682;SDS011;64295;44.772;39.872;2023-02-15T16:26:02;10.38;;;6.13;;
75682;SDS011;64295;44.772;39.872;2023-02-15T16:28:48;9.73;;;4.65;;
75682;SDS011;64295;44.772;39.872;2023-02-15T16:31:17;11.30;;;4.80;;
75682;SDS011;64295;44.772;39.872;2023-02-15T16:33:43;15.30;;;6.63;;
75682;SDS011;64295;44.772;39.872;2023-02-15T16:36:31;13.15;;;5.97;;
75682;SDS011;64295;44.772;39.872;2023-02-15T16:41:32;9.02;;;4.68;;
75682;SDS011;64295;44.772;39.872;2023-02-15T16:44:09;9.65;;;5.13;;
75682;SDS011;64295;44.772;39.872;2023-02-15T16:46:43;22.75;;;8.05;;
75682;SDS011;64295;44.772;39.872;2023-02-15T16:49:21;15.65;;;6.03;;
75682;SDS011;64295;44.772;39.872;2023-02-15T16:52:02;12.15;;;5.38;;
75682;SDS011;64295;44.772;39.872;2023-02-15T16:54:31;10.75;;;5.72;;
75682;SDS011;64295;44.772;39.872;2023-02-15T16:56:59;13.82;;;6.38;;
75682;SDS011;64295;44.772;39.872;2023-02-15T16:59:41;11.23;;;4.82;;
75682;SDS011;64295;44.772;39.872;2023-02-15T17:02:13;9.45;;;4.95;;
75682;SDS011;64295;44.772;39.872;2023-02-15T17:04:52;11.63;;;7.50;;
75682;SDS011;64295;44.772;39.872;2023-02-15T17:07:39;16.65;;;6.25;;
75682;SDS011;64295;44.772;39.872;2023-02-15T17:15:31;14.40;;;5.18;;
75682;SDS011;64295;44.772;39.872;2023-02-15T17:18:00;13.45;;;6.20;;
75682;SDS011;64295;44.772;39.872;2023-02-15T17:20:39;12.15;;;6.30;;
75682;SDS011;64295;44.772;39.872;2023-02-15T17:23:17;11.68;;;5.72;;
75682;SDS011;64295;44.772;39.872;2023-02-15T17:26:02;11.07;;;5.65;;
75682;SDS011;64295;44.772;39.872;2023-02-15T17:28:45;16.80;;;6.93;;
75682;SDS011;64295;44.772;39.872;2023-02-15T17:31:14;16.98;;;6.05;;
75682;SDS011;64295;44.772;39.872;2023-02-15T17:33:43;11.93;;;4.93;;
75682;SDS011;64295;44.772;39.872;2023-02-15T17:36:11;9.57;;;4.93;;
75682;SDS011;64295;44.772;39.872;2023-02-15T17:38:39;12.82;;;6.45;;
75682;SDS011;64295;44.772;39.872;2023-02-15T17:41:06;12.05;;;5.88;;
75682;SDS011;64295;44.772;39.872;2023-02-15T17:43:34;10.63;;;5.55;;
75682;SDS011;64295;44.772;39.872;2023-02-15T17:46:00;12.88;;;5.32;;
75682;SDS011;64295;44.772;39.872;2023-02-15T17:48:33;12.10;;;5.65;;
75682;SDS011;64295;44.772;39.872;2023-02-15T17:51:01;8.73;;;4.55;;
75682;SDS011;64295;44.772;39.872;2023-02-15T17:53:30;13.88;;;6.03;;
75682;SDS011;64295;44.772;39.872;2023-02-15T17:55:56;11.65;;;5.60;;
75682;SDS011;64295;44.772;39.872;2023-02-15T17:58:23;11.45;;;5.13;;
75682;SDS011;64295;44.772;39.872;2023-02-15T18:03:50;8.90;;;5.13;;
75682;SDS011;64295;44.772;39.872;2023-02-15T18:06:39;11.40;;;5.72;;
75682;SDS011;64295;44.772;39.872;2023-02-15T18:09:25;14.05;;;6.07;;
75682;SDS011;64295;44.772;39.872;2023-02-15T18:12:23;10.93;;;5.38;;
75682;SDS011;64295;44.772;39.872;2023-02-15T18:14:52;11.52;;;5.13;;
75682;SDS011;64295;44.772;39.872;2023-02-15T18:17:21;12.18;;;6.38;;
75682;SDS011;64295;44.772;39.872;2023-02-15T18:19:52;9.70;;;4.95;;
75682;SDS011;64295;44.772;39.872;2023-02-15T18:22:18;12.40;;;5.50;;
75682;SDS011;64295;44.772;39.872;2023-02-15T18:24:51;14.57;;;5.97;;